createdAt,value
2022-12-17T00:00:16.760Z,27.87
2022-12-17T00:03:02.882Z,29.10
2022-12-17T00:05:48.277Z,28.97
2022-12-17T00:08:34.065Z,33.53
2022-12-17T00:11:20.311Z,36.03
2022-12-17T00:14:06.481Z,30.60
2022-12-17T00:16:52.661Z,33.47
2022-12-17T00:19:39.499Z,33.73
2022-12-17T00:22:34.154Z,29.00
2022-12-17T00:25:19.821Z,29.03
2022-12-17T00:28:06.648Z,36.67
2022-12-17T00:30:52.947Z,31.43
2022-12-17T00:33:39.923Z,27.03
2022-12-17T00:36:27.082Z,27.40
2022-12-17T00:39:12.463Z,24.47
2022-12-17T00:42:15.527Z,28.30
2022-12-17T00:45:01.694Z,29.50
2022-12-17T00:47:47.491Z,30.57
2022-12-17T00:50:35.471Z,25.80
2022-12-17T00:53:21.384Z,25.53
2022-12-17T00:56:07.480Z,23.50
2022-12-17T00:58:54.720Z,22.30
2022-12-17T01:01:41.257Z,24.97
2022-12-17T01:04:27.543Z,24.50
2022-12-17T01:07:13.286Z,24.57
2022-12-17T01:09:58.720Z,25.23
2022-12-17T01:12:44.761Z,25.47
2022-12-17T01:15:30.462Z,25.63
2022-12-17T01:18:16.031Z,23.03
2022-12-17T01:21:06.731Z,21.47
2022-12-17T01:23:52.514Z,25.17
2022-12-17T01:26:38.026Z,24.10
2022-12-17T01:29:23.609Z,20.63
2022-12-17T01:32:10.252Z,24.70
2022-12-17T01:34:56.412Z,22.37
2022-12-17T01:37:41.990Z,25.07
2022-12-17T01:40:28.609Z,21.47
2022-12-17T01:43:15.429Z,22.27
2022-12-17T01:46:08.002Z,24.60
2022-12-17T01:49:01.053Z,21.17
2022-12-17T01:51:48.276Z,20.23
2022-12-17T01:54:36.366Z,18.80
2022-12-17T01:57:31.216Z,22.47
2022-12-17T02:00:26.575Z,17.13
2022-12-17T02:03:12.306Z,19.67
2022-12-17T02:06:34.876Z,20.27
2022-12-17T02:09:31.602Z,21.83
2022-12-17T02:12:29.447Z,19.23
2022-12-17T02:15:33.767Z,25.27
2022-12-17T02:18:25.432Z,19.75
2022-12-17T02:21:13.837Z,23.00
2022-12-17T02:24:23.497Z,18.57
2022-12-17T02:27:13.715Z,20.80
2022-12-17T02:30:07.585Z,20.57
2022-12-17T02:32:57.933Z,26.75
2022-12-17T02:35:50.182Z,20.93
2022-12-17T02:38:39.450Z,20.67
2022-12-17T02:41:29.786Z,17.33
2022-12-17T02:44:16.692Z,15.93
2022-12-17T02:47:03.633Z,15.97
2022-12-17T02:49:52.262Z,19.83
2022-12-17T02:52:40.090Z,20.47
2022-12-17T02:55:26.704Z,21.40
2022-12-17T02:58:12.540Z,21.87
2022-12-17T03:00:59.884Z,19.23
2022-12-17T03:03:50.088Z,23.10
2022-12-17T03:06:36.190Z,19.80
2022-12-17T03:09:22.267Z,21.17
2022-12-17T03:12:07.680Z,18.50
2022-12-17T03:14:54.719Z,17.00
2022-12-17T03:17:40.465Z,22.23
2022-12-17T03:20:27.445Z,16.47
2022-12-17T03:23:21.383Z,18.50
2022-12-17T03:26:07.125Z,14.70
2022-12-17T03:28:56.624Z,19.33
2022-12-17T03:31:43.203Z,19.27
2022-12-17T03:34:29.166Z,27.60
2022-12-17T03:37:21.557Z,24.43
2022-12-17T03:40:12.719Z,25.17
2022-12-17T03:42:58.476Z,21.97
2022-12-17T03:45:45.228Z,18.33
2022-12-17T03:48:33.869Z,21.13
2022-12-17T03:51:20.781Z,17.80
2022-12-17T03:54:06.841Z,20.67
2022-12-17T03:56:54.652Z,19.07
2022-12-17T03:59:40.441Z,18.00
2022-12-17T04:02:27.886Z,20.50
2022-12-17T04:05:19.687Z,22.97
2022-12-17T04:08:07.762Z,23.60
2022-12-17T04:10:53.984Z,22.30
2022-12-17T04:13:41.376Z,24.00
2022-12-17T04:16:28.476Z,20.73
2022-12-17T04:19:15.308Z,22.17
2022-12-17T04:22:02.992Z,20.07
2022-12-17T04:24:49.311Z,17.40
2022-12-17T04:27:34.855Z,24.73
2022-12-17T04:30:20.710Z,21.03
2022-12-17T04:33:09.306Z,19.93
2022-12-17T04:35:54.942Z,18.33
2022-12-17T04:38:40.684Z,20.20
2022-12-17T04:41:26.888Z,19.60
2022-12-17T04:44:14.921Z,18.00
2022-12-17T04:47:00.384Z,19.03
2022-12-17T04:49:45.679Z,17.00
2022-12-17T04:52:31.172Z,16.60
2022-12-17T04:55:16.549Z,12.57
2022-12-17T04:58:01.795Z,13.80
2022-12-17T05:00:48.544Z,11.90
2022-12-17T05:03:36.143Z,12.47
2022-12-17T05:06:22.375Z,20.50
2022-12-17T05:09:08.326Z,18.73
2022-12-17T05:11:53.606Z,15.97
2022-12-17T05:14:39.312Z,15.17
2022-12-17T05:17:25.899Z,20.37
2022-12-17T05:20:12.142Z,20.40
2022-12-17T05:23:00.796Z,36.73
2022-12-17T05:25:51.784Z,36.43
2022-12-17T05:28:37.335Z,34.70
2022-12-17T05:31:31.414Z,15.67
2022-12-17T05:37:02.606Z,11.30
2022-12-17T05:39:47.976Z,13.53
2022-12-17T05:42:35.387Z,14.80
2022-12-17T05:45:21.958Z,11.63
2022-12-17T05:48:07.321Z,15.63
2022-12-17T05:50:53.157Z,16.00
2022-12-17T05:53:39.423Z,13.77
2022-12-17T05:56:26.202Z,19.67
2022-12-17T05:59:11.982Z,17.80
2022-12-17T06:01:59.253Z,16.87
2022-12-17T06:04:47.811Z,16.50
2022-12-17T06:07:33.261Z,21.73
2022-12-17T06:10:19.544Z,25.67
2022-12-17T06:13:14.343Z,30.90
2022-12-17T06:16:00.580Z,27.80
2022-12-17T06:18:46.126Z,22.73
2022-12-17T06:21:32.477Z,20.40
2022-12-17T06:24:18.716Z,19.40
2022-12-17T06:27:04.277Z,19.33
2022-12-17T06:29:50.749Z,19.13
2022-12-17T06:32:37.249Z,19.03
2022-12-17T06:35:23.403Z,17.00
2022-12-17T06:38:20.359Z,15.73
2022-12-17T06:41:06.450Z,24.57
2022-12-17T06:43:52.804Z,16.33
2022-12-17T06:46:40.626Z,15.50
2022-12-17T06:49:26.874Z,11.80
2022-12-17T06:52:12.398Z,13.83
2022-12-17T06:54:59.109Z,18.20
2022-12-17T06:57:50.220Z,18.33
2022-12-17T07:00:36.353Z,16.50
2022-12-17T07:03:21.937Z,18.77
2022-12-17T07:06:08.249Z,10.77
2022-12-17T07:08:53.851Z,11.17
2022-12-17T07:11:39.661Z,18.97
2022-12-17T07:14:25.469Z,24.07
2022-12-17T07:17:10.873Z,18.07
2022-12-17T07:19:59.063Z,21.77
2022-12-17T07:22:44.820Z,17.30
2022-12-17T07:25:30.640Z,13.20
2022-12-17T07:28:16.727Z,16.63
2022-12-17T07:31:02.847Z,18.37
2022-12-17T07:33:48.714Z,18.80
2022-12-17T07:36:34.581Z,19.47
2022-12-17T07:39:20.267Z,23.13
2022-12-17T07:42:06.870Z,31.33
2022-12-17T07:44:53.352Z,26.17
2022-12-17T07:47:38.875Z,23.63
2022-12-17T07:50:25.775Z,21.37
2022-12-17T07:53:19.641Z,19.63
2022-12-17T07:56:06.029Z,18.23
2022-12-17T07:58:51.707Z,16.07
2022-12-17T08:01:38.482Z,18.17
2022-12-17T08:04:24.043Z,16.80
2022-12-17T08:07:18.583Z,16.33
2022-12-17T08:10:04.108Z,15.73
2022-12-17T08:12:50.517Z,32.60
2022-12-17T08:15:36.630Z,91.27
2022-12-17T08:18:26.439Z,106.03
2022-12-17T08:21:13.457Z,70.00
2022-12-17T08:24:00.062Z,86.30
2022-12-17T08:26:48.788Z,74.37
2022-12-17T08:29:34.239Z,62.97
2022-12-17T08:32:20.846Z,53.63
2022-12-17T08:35:06.179Z,36.27
2022-12-17T08:37:54.318Z,28.87
2022-12-17T08:40:39.964Z,21.80
2022-12-17T08:43:25.857Z,23.30
2022-12-17T08:46:12.950Z,22.30
2022-12-17T08:49:00.784Z,30.67
2022-12-17T08:51:46.852Z,32.97
2022-12-17T08:57:30.598Z,28.23
2022-12-17T09:00:16.424Z,32.57
2022-12-17T09:03:02.111Z,32.17
2022-12-17T09:05:48.200Z,32.30
2022-12-17T09:08:33.474Z,28.40
2022-12-17T09:11:19.528Z,25.97
2022-12-17T09:14:06.558Z,20.67
2022-12-17T09:16:53.181Z,15.57
2022-12-17T09:19:38.936Z,18.10
2022-12-17T09:22:24.722Z,15.37
2022-12-17T09:31:46.429Z,12.57
2022-12-17T09:34:33.304Z,19.20
2022-12-17T09:37:20.483Z,23.63
2022-12-17T09:40:06.480Z,13.37
2022-12-17T09:43:19.412Z,23.17
2022-12-17T09:46:41.319Z,40.80
2022-12-17T09:49:37.100Z,49.23
2022-12-17T09:52:38.755Z,57.37
2022-12-17T09:55:59.491Z,62.57
2022-12-17T09:58:47.362Z,29.87
2022-12-17T10:01:43.233Z,28.57
2022-12-17T10:04:36.356Z,26.07
2022-12-17T10:07:23.125Z,23.17
2022-12-17T10:10:10.616Z,23.20
2022-12-17T10:12:56.243Z,25.30
2022-12-17T10:15:42.184Z,25.83
2022-12-17T10:18:30.661Z,23.53
2022-12-17T10:21:18.265Z,22.57
2022-12-17T10:24:03.804Z,22.37
2022-12-17T10:26:51.419Z,18.57
2022-12-17T10:29:47.718Z,19.57
2022-12-17T10:32:34.049Z,22.43
2022-12-17T10:35:45.244Z,22.67
2022-12-17T10:38:30.817Z,18.30
2022-12-17T10:41:16.676Z,17.17
2022-12-17T10:44:02.302Z,19.57
2022-12-17T10:46:53.124Z,19.83
2022-12-17T10:49:41.648Z,18.57
2022-12-17T10:52:50.644Z,18.10
2022-12-17T10:55:41.872Z,13.77
2022-12-17T10:58:55.404Z,17.10
2022-12-17T11:01:43.576Z,22.90
2022-12-17T11:04:47.521Z,17.27
2022-12-17T11:07:43.590Z,14.38
2022-12-17T11:10:40.969Z,13.15
2022-12-17T11:13:50.265Z,12.52
2022-12-17T11:16:48.209Z,14.40
2022-12-17T11:19:59.467Z,16.23
2022-12-17T11:23:06.746Z,14.75
2022-12-17T11:26:13.244Z,13.55
2022-12-17T11:28:58.915Z,13.43
2022-12-17T11:32:03.723Z,12.85
2022-12-17T11:35:15.208Z,12.05
2022-12-17T11:38:43.740Z,15.38
2022-12-17T11:41:34.460Z,17.30
2022-12-17T11:44:49.098Z,11.48
2022-12-17T11:47:59.468Z,16.75
2022-12-17T11:50:56.227Z,17.48
2022-12-17T11:54:19.570Z,19.50
2022-12-17T11:57:11.572Z,18.08
2022-12-17T12:00:13.937Z,17.23
2022-12-17T12:03:10.922Z,19.45
2022-12-17T12:06:12.479Z,18.35
2022-12-17T12:09:15.676Z,17.38
2022-12-17T12:12:24.565Z,16.13
2022-12-17T12:15:27.601Z,15.48
2022-12-17T12:18:23.460Z,13.25
2022-12-17T12:21:47.799Z,13.80
2022-12-17T12:24:48.921Z,14.53
2022-12-17T12:27:56.406Z,15.70
2022-12-17T12:30:53.401Z,16.42
2022-12-17T12:34:06.803Z,16.25
2022-12-17T12:36:54.522Z,15.68
2022-12-17T12:40:00.411Z,15.10
2022-12-17T12:43:03.430Z,13.77
2022-12-17T12:46:11.324Z,15.75
2022-12-17T12:49:04.266Z,18.67
2022-12-17T12:51:54.983Z,16.90
2022-12-17T12:54:45.185Z,17.80
2022-12-17T12:57:55.789Z,20.60
2022-12-17T13:00:46.523Z,21.33
2022-12-17T13:03:44.401Z,21.63
2022-12-17T13:06:16.120Z,19.90
2022-12-17T13:08:43.216Z,20.92
2022-12-17T13:11:25.945Z,21.98
2022-12-17T13:13:57.766Z,22.30
2022-12-17T13:16:53.888Z,24.08
2022-12-17T13:20:05.012Z,21.73
2022-12-17T13:22:34.410Z,20.88
2022-12-17T13:25:17.634Z,18.98
2022-12-17T13:27:45.462Z,20.55
2022-12-17T13:30:19.771Z,26.00
2022-12-17T13:33:00.813Z,32.88
2022-12-17T13:35:48.984Z,25.98
2022-12-17T13:38:22.715Z,22.38
2022-12-17T13:41:10.357Z,21.55
2022-12-17T13:43:46.164Z,19.15
2022-12-17T13:46:47.336Z,19.50
2022-12-17T13:49:27.754Z,21.45
2022-12-17T13:52:18.817Z,21.38
2022-12-17T13:54:46.797Z,18.48
2022-12-17T13:57:23.223Z,22.42
2022-12-17T14:00:03.188Z,19.88
2022-12-17T14:02:39.711Z,19.80
2022-12-17T14:05:21.135Z,20.45
2022-12-17T14:07:51.620Z,21.65
2022-12-17T14:10:19.881Z,21.10
2022-12-17T14:12:47.295Z,21.67
2022-12-17T14:15:30.102Z,21.58
2022-12-17T14:17:59.197Z,22.42
2022-12-17T14:20:32.503Z,22.55
2022-12-17T14:23:06.312Z,20.88
2022-12-17T14:28:26.416Z,23.48
2022-12-17T14:34:08.162Z,27.40
2022-12-17T14:36:37.892Z,24.90
2022-12-17T14:39:16.657Z,27.45
2022-12-17T14:42:03.556Z,25.45
2022-12-17T14:44:31.730Z,25.90
2022-12-17T14:47:18.703Z,28.10
2022-12-17T14:50:33.301Z,25.73
2022-12-17T14:53:02.196Z,25.38
2022-12-17T14:55:34.478Z,26.63
2022-12-17T14:58:14.178Z,24.75
2022-12-17T15:00:45.932Z,28.80
2022-12-17T15:03:18.368Z,25.05
2022-12-17T15:05:51.341Z,27.25
2022-12-17T15:08:20.754Z,26.00
2022-12-17T15:10:48.055Z,24.58
2022-12-17T15:13:15.270Z,22.70
2022-12-17T15:15:42.384Z,25.17
2022-12-17T15:18:09.444Z,27.98
2022-12-17T15:20:36.789Z,28.83
2022-12-17T15:23:04.034Z,28.20
2022-12-17T15:25:30.908Z,29.73
2022-12-17T15:27:57.766Z,29.98
2022-12-17T15:30:24.674Z,29.20
2022-12-17T15:32:51.541Z,25.73
2022-12-17T15:35:18.473Z,26.70
2022-12-17T15:37:45.290Z,27.48
2022-12-17T15:40:12.434Z,27.02
2022-12-17T15:43:02.898Z,28.73
2022-12-17T15:45:32.994Z,25.88
2022-12-17T15:47:59.786Z,30.15
2022-12-17T15:50:27.070Z,26.83
2022-12-17T15:52:53.986Z,24.48
2022-12-17T15:55:20.912Z,23.63
2022-12-17T15:57:47.675Z,28.55
2022-12-17T16:00:14.920Z,29.63
2022-12-17T16:02:42.056Z,23.60
2022-12-17T16:05:09.288Z,23.30
2022-12-17T16:07:37.995Z,25.83
2022-12-17T16:10:06.411Z,28.75
2022-12-17T16:12:33.356Z,26.20
2022-12-17T16:15:00.415Z,26.23
2022-12-17T16:17:27.526Z,24.55
2022-12-17T16:19:54.445Z,28.13
2022-12-17T16:22:21.336Z,25.80
2022-12-17T16:24:48.385Z,29.97
2022-12-17T16:27:18.179Z,30.73
2022-12-17T16:29:45.948Z,37.22
2022-12-17T16:32:12.779Z,39.92
2022-12-17T16:34:39.640Z,41.45
2022-12-17T16:37:07.804Z,39.13
2022-12-17T16:39:34.636Z,38.60
2022-12-17T16:42:01.591Z,43.90
2022-12-17T16:44:28.427Z,47.13
2022-12-17T16:46:55.369Z,48.20
2022-12-17T16:49:24.162Z,52.70
2022-12-17T16:51:52.662Z,49.60
2022-12-17T16:54:25.984Z,52.50
2022-12-17T16:56:53.311Z,53.92
2022-12-17T16:59:20.197Z,48.20
2022-12-17T17:01:49.075Z,52.27
2022-12-17T17:04:18.019Z,51.03
2022-12-17T17:06:47.827Z,57.07
2022-12-17T17:09:15.725Z,75.80
2022-12-17T17:11:46.891Z,57.53
2022-12-17T17:14:17.117Z,51.57
2022-12-17T17:16:43.898Z,44.63
2022-12-17T17:19:10.699Z,47.13
2022-12-17T17:21:42.140Z,52.17
2022-12-17T17:24:16.830Z,37.67
2022-12-17T17:26:47.664Z,37.53
2022-12-17T17:29:15.089Z,37.87
2022-12-17T17:34:28.751Z,42.13
2022-12-17T17:36:55.535Z,38.33
2022-12-17T17:39:22.371Z,38.17
2022-12-17T17:41:49.173Z,46.47
2022-12-17T17:44:16.167Z,41.00
2022-12-17T17:46:43.007Z,50.07
2022-12-17T17:49:10.704Z,53.00
2022-12-17T17:54:28.645Z,55.53
2022-12-17T17:56:55.829Z,57.10
2022-12-17T17:59:29.486Z,64.77
2022-12-17T18:01:58.195Z,75.70
2022-12-17T18:04:25.415Z,68.40
2022-12-17T18:07:23.542Z,79.83
2022-12-17T18:09:40.712Z,84.90
2022-12-17T18:12:26.647Z,89.13
2022-12-17T18:17:41.031Z,73.20
2022-12-17T18:20:09.912Z,63.17
2022-12-17T18:22:37.311Z,61.17
2022-12-17T18:25:04.713Z,55.83
2022-12-17T18:27:31.529Z,55.27
2022-12-17T18:29:58.424Z,50.27
2022-12-17T18:32:25.254Z,46.23
2022-12-17T18:34:52.258Z,43.87
2022-12-17T18:37:19.149Z,43.43
2022-12-17T18:39:46.049Z,41.77
2022-12-17T18:42:31.507Z,43.23
2022-12-17T18:44:58.521Z,38.17
2022-12-17T18:47:25.697Z,35.03
2022-12-17T18:49:53.210Z,33.63
2022-12-17T18:52:20.276Z,42.23
2022-12-17T18:54:48.383Z,36.93
2022-12-17T18:57:15.225Z,39.10
2022-12-17T18:59:42.149Z,34.33
2022-12-17T19:02:13.632Z,33.33
2022-12-17T19:04:41.297Z,36.23
2022-12-17T19:07:08.228Z,38.00
2022-12-17T19:09:35.850Z,37.00
2022-12-17T19:12:05.415Z,45.00
2022-12-17T19:14:32.685Z,39.77
2022-12-17T19:16:59.587Z,36.23
2022-12-17T19:19:27.033Z,38.97
2022-12-17T19:21:55.367Z,42.77
2022-12-17T19:24:23.647Z,48.00
2022-12-17T19:26:51.808Z,41.73
2022-12-17T19:29:20.588Z,39.63
2022-12-17T19:31:48.190Z,48.23
2022-12-17T19:34:16.841Z,44.03
2022-12-17T19:36:44.734Z,39.10
2022-12-17T19:39:14.769Z,35.37
2022-12-17T19:41:41.642Z,36.27
2022-12-17T19:44:12.443Z,36.30
2022-12-17T19:46:39.806Z,34.10
2022-12-17T19:49:08.600Z,41.23
2022-12-17T19:51:40.337Z,35.27
2022-12-17T19:54:09.101Z,32.87
2022-12-17T19:56:37.179Z,33.70
2022-12-17T19:59:07.580Z,31.47
2022-12-17T20:01:43.998Z,31.63
2022-12-17T20:04:15.760Z,27.37
2022-12-17T20:06:44.401Z,26.80
2022-12-17T20:09:11.744Z,30.53
2022-12-17T20:11:40.171Z,26.63
2022-12-17T20:14:18.100Z,28.20
2022-12-17T20:16:53.734Z,28.57
2022-12-17T20:19:26.495Z,24.90
2022-12-17T20:21:55.151Z,25.98
2022-12-17T20:24:31.220Z,23.17
2022-12-17T20:26:59.223Z,25.87
2022-12-17T20:29:26.304Z,30.73
2022-12-17T20:31:53.777Z,28.67
2022-12-17T20:34:21.488Z,27.83
2022-12-17T20:36:49.038Z,28.87
2022-12-17T20:39:17.983Z,28.00
2022-12-17T20:41:46.634Z,26.80
2022-12-17T20:44:14.982Z,29.70
2022-12-17T20:46:44.238Z,31.33
2022-12-17T20:49:13.796Z,27.40
2022-12-17T20:51:40.896Z,25.93
2022-12-17T20:57:16.203Z,29.37
2022-12-17T20:59:43.396Z,27.50
2022-12-17T21:02:10.626Z,33.67
2022-12-17T21:04:37.492Z,32.43
2022-12-17T21:07:04.440Z,30.03
2022-12-17T21:09:31.324Z,34.63
2022-12-17T21:11:58.676Z,28.17
2022-12-17T21:14:29.164Z,32.53
2022-12-17T21:16:58.968Z,31.85
2022-12-17T21:19:27.639Z,38.47
2022-12-17T21:21:54.580Z,68.63
2022-12-17T21:24:21.631Z,58.47
2022-12-17T21:26:48.518Z,47.43
2022-12-17T21:29:16.933Z,46.47
2022-12-17T21:31:49.513Z,40.67
2022-12-17T21:34:21.767Z,36.42
2022-12-17T21:36:50.563Z,25.37
2022-12-17T21:39:21.281Z,29.43
2022-12-17T21:42:08.128Z,27.37
2022-12-17T21:44:35.914Z,25.03
2022-12-17T21:47:03.082Z,27.60
2022-12-17T21:49:29.973Z,39.40
2022-12-17T21:51:59.368Z,33.37
2022-12-17T21:54:26.504Z,25.87
2022-12-17T21:56:53.663Z,25.63
2022-12-17T21:59:20.623Z,25.07
2022-12-17T22:01:47.650Z,26.37
2022-12-17T22:04:15.155Z,30.40
2022-12-17T22:06:51.143Z,27.67
2022-12-17T22:09:57.309Z,24.17
2022-12-17T22:12:36.169Z,24.83
2022-12-17T22:15:03.553Z,21.43
2022-12-17T22:17:31.057Z,23.30
2022-12-17T22:19:57.981Z,22.27
2022-12-17T22:22:25.082Z,26.77
2022-12-17T22:24:51.916Z,27.60
2022-12-17T22:27:18.942Z,23.53
2022-12-17T22:30:04.655Z,30.30
2022-12-17T22:32:50.226Z,32.67
2022-12-17T22:36:38.229Z,44.77
2022-12-17T22:41:59.401Z,36.30
2022-12-17T22:44:31.624Z,29.10
2022-12-17T22:44:52.202Z,29.17
2022-12-17T22:46:29.182Z,31.93
2022-12-17T22:48:57.619Z,34.90
2022-12-17T22:51:33.155Z,31.90
2022-12-17T22:54:03.762Z,31.63
2022-12-17T22:56:31.149Z,36.60
2022-12-17T22:59:01.031Z,39.97
2022-12-17T23:01:28.244Z,37.47
2022-12-17T23:03:56.566Z,34.57
2022-12-17T23:06:24.026Z,36.50
2022-12-17T23:08:51.647Z,28.63
2022-12-17T23:11:23.609Z,22.87
2022-12-17T23:13:51.156Z,24.83
2022-12-17T23:16:19.050Z,28.93
2022-12-17T23:18:47.356Z,31.70
2022-12-17T23:21:21.040Z,30.20
2022-12-17T23:23:48.115Z,25.77
2022-12-17T23:26:20.561Z,27.40
2022-12-17T23:28:47.616Z,26.20
2022-12-17T23:31:18.016Z,38.77
2022-12-17T23:33:46.547Z,42.93
2022-12-17T23:36:18.846Z,52.20
2022-12-17T23:38:46.776Z,70.33
2022-12-17T23:41:16.284Z,67.60
2022-12-17T23:43:43.813Z,39.43
2022-12-17T23:46:11.594Z,30.63
2022-12-17T23:48:45.311Z,24.70
2022-12-17T23:51:15.010Z,27.33
2022-12-17T23:53:42.903Z,27.43
2022-12-17T23:56:16.364Z,27.33
2022-12-17T23:58:45.093Z,23.63
